Time;durP1;ratioP1;P1;durP2;ratioP2;P2;SDS_P1;SDS_P2;PMS_P1;PMS_P2;Temp;Humidity;BMP_temperature;BMP_pressure;BME280_temperature;BME280_humidity;BME280_pressure;Samples;Min_cycle;Max_cycle;Signal;HPM_P1;HPM_P2
2021/04/02 00:00:49;;;;;;;7.90;7.10;;;12.40;53.10;;;;;;5073306;28;20436;-75
2021/04/02 00:03:19;;;;;;;10.20;7.13;;;12.30;53.10;;;;;;5073312;28;20468;-76
2021/04/02 00:05:45;;;;;;;8.90;7.40;;;12.30;53.10;;;;;;5073192;28;20467;-75
2021/04/02 00:08:12;;;;;;;13.23;8.20;;;12.30;53.20;;;;;;5072762;28;20460;-75
2021/04/02 00:10:46;;;;;;;11.90;7.67;;;12.30;53.10;;;;;;5073168;28;20480;-76
2021/04/02 00:13:15;;;;;;;10.90;7.30;;;12.20;52.90;;;;;;5072917;28;20432;-76
2021/04/02 00:15:41;;;;;;;8.93;7.00;;;12.10;52.80;;;;;;5073116;28;20469;-75
2021/04/02 00:18:09;;;;;;;14.77;8.03;;;12.10;53.10;;;;;;5072990;28;20459;-76
2021/04/02 00:20:36;;;;;;;9.30;7.83;;;12.00;53.30;;;;;;5073059;28;20543;-76
2021/04/02 00:23:02;;;;;;;11.17;8.50;;;12.00;53.50;;;;;;5073002;28;20814;-75
2021/04/02 00:25:28;;;;;;;8.83;7.93;;;11.90;53.50;;;;;;5072932;28;20475;-75
2021/04/02 00:27:54;;;;;;;11.20;8.00;;;11.90;53.90;;;;;;5073001;28;20792;-75
2021/04/02 00:30:27;;;;;;;9.80;7.70;;;11.90;54.00;;;;;;5072882;28;20476;-75
2021/04/02 00:32:53;;;;;;;11.57;8.00;;;11.80;53.90;;;;;;5073018;28;20459;-75
2021/04/02 00:35:19;;;;;;;10.77;8.70;;;11.80;53.70;;;;;;5072873;28;20478;-75
2021/04/02 00:37:46;;;;;;;12.10;8.50;;;11.80;53.80;;;;;;5072894;28;20445;-76
2021/04/02 00:40:18;;;;;;;10.77;8.20;;;11.80;53.90;;;;;;5072867;28;20440;-75
2021/04/02 00:42:45;;;;;;;11.90;8.10;;;11.70;53.80;;;;;;5072874;28;20425;-75
2021/04/02 00:45:14;;;;;;;11.57;8.47;;;11.70;53.90;;;;;;5072427;28;20463;-75
2021/04/02 00:47:41;;;;;;;10.53;8.50;;;11.60;54.00;;;;;;5074070;28;20470;-75
2021/04/02 00:50:11;;;;;;;10.30;8.43;;;11.60;54.30;;;;;;5076346;28;20476;-75
2021/04/02 00:52:37;;;;;;;10.20;8.30;;;11.50;54.60;;;;;;5076431;28;20425;-75
2021/04/02 00:55:05;;;;;;;12.60;8.30;;;11.50;54.30;;;;;;5076281;28;20465;-75
2021/04/02 00:57:32;;;;;;;9.67;8.20;;;11.40;54.30;;;;;;5076292;28;20442;-75
2021/04/02 00:59:58;;;;;;;11.37;8.13;;;11.40;54.40;;;;;;5076274;28;20463;-75
2021/04/02 01:02:25;;;;;;;10.60;8.70;;;11.40;54.50;;;;;;5076247;28;20447;-75
2021/04/02 01:04:52;;;;;;;10.43;8.63;;;11.30;54.70;;;;;;5076110;28;20476;-75
2021/04/02 01:07:18;;;;;;;11.83;9.03;;;11.30;54.70;;;;;;5075844;28;20459;-75
2021/04/02 01:09:45;;;;;;;10.33;8.37;;;11.20;54.70;;;;;;5076048;28;20483;-75
2021/04/02 01:12:12;;;;;;;10.87;8.70;;;11.20;54.80;;;;;;5076062;28;20479;-75
2021/04/02 01:14:38;;;;;;;9.67;8.67;;;11.10;55.00;;;;;;5075915;28;20460;-75
2021/04/02 01:17:04;;;;;;;9.17;7.87;;;11.00;55.10;;;;;;5075997;28;20447;-75
2021/04/02 01:19:36;;;;;;;12.03;8.53;;;11.00;55.30;;;;;;5075920;28;20436;-75
2021/04/02 01:22:05;;;;;;;9.73;8.20;;;11.00;55.40;;;;;;5075965;28;20428;-75
2021/04/02 01:24:55;;;;;;;10.07;7.97;;;11.00;55.20;;;;;;5075796;28;20461;-75
2021/04/02 01:27:37;;;;;;;10.80;8.30;;;10.90;55.20;;;;;;5075880;28;20433;-75
2021/04/02 01:30:10;;;;;;;9.23;8.20;;;10.90;55.20;;;;;;5075715;28;20467;-74
2021/04/02 01:32:39;;;;;;;11.00;8.83;;;10.90;55.30;;;;;;5075739;28;20425;-75
2021/04/02 01:35:13;;;;;;;8.47;7.57;;;10.80;55.30;;;;;;5075551;28;20463;-75
2021/04/02 01:37:44;;;;;;;8.90;8.00;;;10.80;55.40;;;;;;5075639;28;20435;-75
2021/04/02 01:40:14;;;;;;;11.23;8.60;;;10.80;55.50;;;;;;5075226;28;20897;-74
2021/04/02 01:42:43;;;;;;;13.80;9.03;;;10.80;55.50;;;;;;5075551;28;20440;-75
2021/04/02 01:45:13;;;;;;;9.77;8.30;;;10.70;55.60;;;;;;5075128;28;20464;-75
2021/04/02 01:47:40;;;;;;;12.57;9.40;;;10.70;55.70;;;;;;5075134;28;20437;-75
2021/04/02 01:50:09;;;;;;;11.13;8.23;;;10.70;55.90;;;;;;5075279;28;20478;-74
2021/04/02 01:52:36;;;;;;;11.27;9.53;;;10.60;55.90;;;;;;5075344;28;20455;-75
2021/04/02 01:55:03;;;;;;;10.63;8.77;;;10.60;56.00;;;;;;5075196;28;20472;-74
2021/04/02 01:57:30;;;;;;;13.00;8.80;;;10.60;56.20;;;;;;5074921;28;20922;-75
2021/04/02 01:59:58;;;;;;;10.20;9.03;;;10.50;56.20;;;;;;5074292;28;20456;-75
2021/04/02 02:02:26;;;;;;;10.57;9.20;;;10.50;56.40;;;;;;5075137;28;20811;-75
2021/04/02 02:04:54;;;;;;;11.10;8.77;;;10.50;56.60;;;;;;5074673;28;20518;-74
2021/04/02 02:07:21;;;;;;;9.07;8.10;;;10.40;56.80;;;;;;5074739;28;20957;-75
2021/04/02 02:09:51;;;;;;;13.10;8.80;;;10.40;57.00;;;;;;5074540;28;21004;-74
2021/04/02 02:12:18;;;;;;;9.87;8.87;;;10.40;57.60;;;;;;5074931;28;20478;-74
2021/04/02 02:14:49;;;;;;;13.03;9.40;;;10.40;57.60;;;;;;5074776;28;20474;-74
2021/04/02 02:17:20;;;;;;;14.50;8.70;;;10.30;57.80;;;;;;5074878;28;20444;-75
2021/04/02 02:19:48;;;;;;;9.57;8.13;;;10.30;58.20;;;;;;5074762;28;20421;-75
2021/04/02 02:22:16;;;;;;;13.27;8.80;;;10.30;58.50;;;;;;5075278;28;20450;-74
2021/04/02 02:24:43;;;;;;;11.27;9.10;;;10.30;58.60;;;;;;5074577;28;20516;-75
2021/04/02 02:27:09;;;;;;;10.00;9.00;;;10.30;59.00;;;;;;5074299;28;21072;-74
2021/04/02 02:29:36;;;;;;;10.40;8.90;;;10.30;59.20;;;;;;5074497;28;20473;-74
2021/04/02 02:32:04;;;;;;;9.67;8.60;;;10.20;59.40;;;;;;5074488;28;20448;-74
2021/04/02 02:34:30;;;;;;;13.97;9.10;;;10.20;60.10;;;;;;5074393;28;20469;-74
2021/04/02 02:36:58;;;;;;;12.37;8.90;;;10.20;60.60;;;;;;5074947;28;20444;-74
2021/04/02 02:39:25;;;;;;;10.60;9.20;;;10.30;60.70;;;;;;5074345;28;20496;-74
2021/04/02 02:41:53;;;;;;;10.60;8.60;;;10.20;60.20;;;;;;5074026;28;20961;-74
2021/04/02 02:44:19;;;;;;;10.10;8.77;;;10.20;60.50;;;;;;5074233;28;20470;-74
2021/04/02 02:46:45;;;;;;;10.63;7.77;;;10.20;60.60;;;;;;5074270;28;20450;-75
2021/04/02 02:49:15;;;;;;;11.93;8.60;;;10.20;61.20;;;;;;5074174;28;20468;-74
2021/04/02 02:51:43;;;;;;;9.57;8.50;;;10.30;61.60;;;;;;5074127;28;20445;-74
2021/04/02 02:54:14;;;;;;;11.10;8.40;;;10.30;62.40;;;;;;5073667;28;20470;-75
2021/04/02 02:56:44;;;;;;;10.87;7.87;;;10.30;62.00;;;;;;5074104;28;20428;-74
2021/04/02 02:59:14;;;;;;;11.17;7.87;;;10.20;61.70;;;;;;5074019;28;20468;-75
2021/04/02 03:01:41;;;;;;;10.57;8.00;;;10.30;62.30;;;;;;5073932;28;20447;-75
2021/04/02 03:04:09;;;;;;;10.93;8.10;;;10.30;61.70;;;;;;5073585;28;20631;-75
2021/04/02 03:06:39;;;;;;;9.40;7.97;;;10.30;61.20;;;;;;5073755;28;20444;-75
2021/04/02 03:09:07;;;;;;;10.40;7.93;;;10.40;61.30;;;;;;5073508;28;20979;-75
2021/04/02 03:11:34;;;;;;;10.93;7.13;;;10.40;61.20;;;;;;5073402;28;20507;-75
2021/04/02 03:14:02;;;;;;;10.07;7.53;;;10.40;60.70;;;;;;5073759;28;20475;-75
2021/04/02 03:16:29;;;;;;;9.93;7.93;;;10.40;60.80;;;;;;5073484;28;20978;-75
2021/04/02 03:18:58;;;;;;;13.70;8.40;;;10.40;61.10;;;;;;5073713;28;20446;-75
2021/04/02 03:21:25;;;;;;;8.07;7.27;;;10.30;60.60;;;;;;5073390;28;20822;-75
2021/04/02 03:23:53;;;;;;;10.57;6.60;;;10.30;60.90;;;;;;5073653;28;20470;-75
2021/04/02 03:26:21;;;;;;;11.03;7.70;;;10.30;61.30;;;;;;5073655;28;20498;-74
2021/04/02 03:28:49;;;;;;;11.00;7.13;;;10.30;61.60;;;;;;5073269;28;20453;-75
2021/04/02 03:31:16;;;;;;;15.00;8.10;;;10.20;61.70;;;;;;5073717;28;20467;-75
2021/04/02 03:33:48;;;;;;;8.63;7.00;;;10.20;61.60;;;;;;5073637;28;20448;-75
2021/04/02 03:36:15;;;;;;;8.70;6.80;;;10.20;61.50;;;;;;5073320;28;20472;-75
2021/04/02 03:38:45;;;;;;;9.77;7.67;;;10.10;61.60;;;;;;5073514;28;20518;-75
2021/04/02 03:41:15;;;;;;;8.97;7.43;;;10.10;62.50;;;;;;5073462;28;20448;-75
2021/04/02 03:43:43;;;;;;;8.53;7.13;;;10.10;63.00;;;;;;5073742;28;20451;-75
2021/04/02 03:46:11;;;;;;;8.60;6.90;;;10.00;62.30;;;;;;5073056;28;20836;-75
2021/04/02 03:48:40;;;;;;;10.97;7.83;;;10.00;63.20;;;;;;5073416;28;20455;-75
2021/04/02 03:51:08;;;;;;;7.60;6.90;;;10.00;63.50;;;;;;5073292;28;20480;-75
2021/04/02 03:53:41;;;;;;;10.20;7.57;;;10.10;63.50;;;;;;5073352;28;20441;-75
2021/04/02 03:56:10;;;;;;;9.40;6.80;;;10.00;62.60;;;;;;5073017;28;20468;-75
2021/04/02 03:58:39;;;;;;;11.03;7.90;;;10.00;63.20;;;;;;5073330;28;20458;-75
2021/04/02 04:01:08;;;;;;;17.83;9.20;;;10.00;63.70;;;;;;5073000;28;20459;-75
2021/04/02 04:03:38;;;;;;;8.03;7.23;;;10.00;63.50;;;;;;5073289;28;20446;-75
2021/04/02 04:06:07;;;;;;;12.73;8.23;;;10.10;63.70;;;;;;5073188;28;20501;-75
2021/04/02 04:08:35;;;;;;;10.80;7.53;;;10.10;63.20;;;;;;5073000;28;20463;-75
2021/04/02 04:11:02;;;;;;;7.60;6.87;;;10.10;63.10;;;;;;5073071;28;20480;-75
2021/04/02 04:13:31;;;;;;;12.27;8.43;;;10.10;63.20;;;;;;5073109;28;20501;-75
2021/04/02 04:16:00;;;;;;;11.03;6.90;;;10.00;63.20;;;;;;5073042;28;20653;-75
2021/04/02 04:18:27;;;;;;;10.57;7.80;;;10.00;63.60;;;;;;5073102;28;20459;-75
2021/04/02 04:20:56;;;;;;;10.90;7.47;;;10.00;63.40;;;;;;5073057;28;20441;-75
2021/04/02 04:23:24;;;;;;;11.23;8.63;;;10.00;63.50;;;;;;5075354;28;20440;-75
2021/04/02 04:25:56;;;;;;;11.03;7.63;;;10.00;64.10;;;;;;5076857;28;20470;-75
2021/04/02 04:28:24;;;;;;;9.23;8.00;;;10.00;64.20;;;;;;5076624;28;20455;-75
2021/04/02 04:30:54;;;;;;;10.00;7.40;;;10.00;64.30;;;;;;5076453;28;20467;-75
2021/04/02 04:33:22;;;;;;;11.43;8.00;;;9.90;65.30;;;;;;5076492;28;20931;-75
2021/04/02 04:35:49;;;;;;;8.63;7.80;;;9.90;65.10;;;;;;5076326;28;20456;-75
2021/04/02 04:38:17;;;;;;;10.33;7.67;;;9.90;65.40;;;;;;5076713;28;20445;-75
2021/04/02 04:40:44;;;;;;;11.03;8.40;;;9.90;65.90;;;;;;5076617;28;20441;-75
2021/04/02 04:43:14;;;;;;;15.93;8.37;;;10.00;65.60;;;;;;5076571;28;20449;-75
2021/04/02 04:45:41;;;;;;;11.10;7.70;;;9.90;65.20;;;;;;5076730;28;20480;-75
2021/04/02 04:48:07;;;;;;;10.83;7.97;;;9.90;65.30;;;;;;5076494;28;20451;-75
2021/04/02 04:50:34;;;;;;;11.37;7.17;;;9.90;65.50;;;;;;5076348;28;20479;-75
2021/04/02 04:53:03;;;;;;;8.70;7.80;;;9.80;65.60;;;;;;5077007;28;20793;-75
2021/04/02 04:55:33;;;;;;;15.43;8.20;;;9.80;66.10;;;;;;5076303;28;20464;-75
2021/04/02 04:58:00;;;;;;;12.63;7.73;;;9.90;66.20;;;;;;5076292;28;20444;-75
2021/04/02 05:00:30;;;;;;;9.97;8.40;;;9.90;66.20;;;;;;5076261;28;20441;-75
2021/04/02 05:02:58;;;;;;;11.50;8.77;;;9.90;66.20;;;;;;5075906;28;20936;-75
2021/04/02 05:05:29;;;;;;;9.80;7.93;;;9.80;66.00;;;;;;5076120;28;20472;-75
2021/04/02 05:07:58;;;;;;;13.27;8.60;;;9.80;65.30;;;;;;5075892;28;20464;-75
2021/04/02 05:10:25;;;;;;;8.17;6.90;;;9.80;65.50;;;;;;5075775;28;20494;-75
2021/04/02 05:12:54;;;;;;;11.73;7.80;;;9.70;65.70;;;;;;5076035;28;20497;-75
2021/04/02 05:15:21;;;;;;;11.23;8.80;;;9.70;65.10;;;;;;5075963;28;20498;-75
2021/04/02 05:17:48;;;;;;;10.77;7.30;;;9.70;65.40;;;;;;5075938;28;20455;-75
2021/04/02 05:20:15;;;;;;;16.67;8.93;;;9.70;65.80;;;;;;5075599;28;20817;-75
2021/04/02 05:22:41;;;;;;;8.30;6.43;;;9.70;66.30;;;;;;5075896;28;20895;-75
2021/04/02 05:25:08;;;;;;;14.33;7.27;;;9.70;66.70;;;;;;5076035;28;20464;-75
2021/04/02 05:27:35;;;;;;;10.90;8.20;;;9.70;66.70;;;;;;5075776;28;20455;-75
2021/04/02 05:30:03;;;;;;;10.90;7.27;;;9.60;66.80;;;;;;5075375;28;21054;-75
2021/04/02 05:32:30;;;;;;;10.53;7.13;;;9.60;67.10;;;;;;5075412;28;20447;-75
2021/04/02 05:34:56;;;;;;;15.77;7.00;;;9.60;67.70;;;;;;5074666;28;20464;-75
2021/04/02 05:37:22;;;;;;;20.73;9.77;;;9.50;67.70;;;;;;5075623;28;20445;-75
2021/04/02 05:39:49;;;;;;;8.77;7.13;;;9.50;67.90;;;;;;5075595;28;20830;-75
2021/04/02 05:42:22;;;;;;;9.93;8.10;;;9.50;68.20;;;;;;5075529;28;20441;-75
2021/04/02 05:44:50;;;;;;;14.00;7.67;;;9.50;68.60;;;;;;5075466;28;20458;-75
2021/04/02 05:47:17;;;;;;;11.67;7.67;;;9.50;68.90;;;;;;5075490;28;20444;-75
2021/04/02 05:49:45;;;;;;;10.57;7.63;;;9.50;69.10;;;;;;5075322;28;20488;-75
2021/04/02 05:52:13;;;;;;;14.80;9.80;;;9.50;69.20;;;;;;5075346;28;20453;-75
2021/04/02 05:54:42;;;;;;;11.70;9.17;;;9.50;69.00;;;;;;5074931;28;21047;-75
2021/04/02 05:57:09;;;;;;;16.57;10.13;;;9.50;69.70;;;;;;5074921;28;20471;-75
2021/04/02 05:59:37;;;;;;;12.83;10.10;;;9.60;69.40;;;;;;5075174;28;20448;-75
2021/04/02 06:02:04;;;;;;;19.50;12.10;;;9.60;69.40;;;;;;5075139;28;20538;-75
2021/04/02 06:04:31;;;;;;;26.33;16.60;;;9.70;69.40;;;;;;5075001;28;20469;-75
2021/04/02 06:06:57;;;;;;;52.70;30.20;;;9.70;69.20;;;;;;5074841;28;20456;-75
2021/04/02 06:09:25;;;;;;;52.63;33.53;;;9.70;69.00;;;;;;5074912;28;20465;-75
2021/04/02 06:11:51;;;;;;;55.00;36.07;;;9.70;69.00;;;;;;5074893;28;20448;-75
2021/04/02 06:14:17;;;;;;;70.00;41.17;;;9.80;69.10;;;;;;5074785;28;20460;-74
2021/04/02 06:16:47;;;;;;;69.63;42.90;;;9.80;68.60;;;;;;5074870;28;20440;-75
2021/04/02 06:19:14;;;;;;;69.23;43.97;;;9.80;68.00;;;;;;5074493;28;20899;-75
2021/04/02 06:21:48;;;;;;;67.27;48.30;;;9.80;67.90;;;;;;5074714;28;20518;-75
2021/04/02 06:24:15;;;;;;;64.40;45.07;;;9.90;68.20;;;;;;5074566;28;20468;-75
2021/04/02 06:26:57;;;;;;;69.10;47.53;;;9.90;67.70;;;;;;5075404;28;20442;-75
2021/04/02 06:29:26;;;;;;;69.87;47.80;;;9.90;67.90;;;;;;5074524;28;20492;-75
2021/04/02 06:31:53;;;;;;;60.67;45.17;;;9.90;67.90;;;;;;5074490;28;20856;-75
2021/04/02 06:34:20;;;;;;;67.90;46.30;;;10.00;66.30;;;;;;5074399;28;20464;-75
2021/04/02 06:36:49;;;;;;;65.90;45.73;;;10.00;66.20;;;;;;5074106;28;20447;-75
2021/04/02 06:39:16;;;;;;;65.20;43.30;;;10.00;66.20;;;;;;5074051;28;20935;-75
2021/04/02 06:41:43;;;;;;;66.93;45.33;;;10.00;66.30;;;;;;5074270;28;20504;-75
2021/04/02 06:44:09;;;;;;;58.83;41.83;;;10.10;66.60;;;;;;5074171;28;20930;-76
2021/04/02 06:46:37;;;;;;;58.30;40.60;;;10.20;66.70;;;;;;5073940;28;20444;-75
2021/04/02 06:49:11;;;;;;;54.23;38.53;;;10.20;66.20;;;;;;5074211;28;20445;-75
2021/04/02 06:51:39;;;;;;;52.03;35.47;;;10.20;65.90;;;;;;5074224;28;20425;-75
2021/04/02 06:54:07;;;;;;;52.13;39.33;;;10.30;66.00;;;;;;5073982;28;20445;-75
2021/04/02 06:56:34;;;;;;;58.57;41.13;;;10.20;65.00;;;;;;5073707;28;20965;-75
2021/04/02 06:59:03;;;;;;;54.53;39.27;;;10.20;65.30;;;;;;5073720;28;20965;-75
2021/04/02 07:01:33;;;;;;;53.00;33.67;;;10.20;65.30;;;;;;5073670;28;20870;-77
2021/04/02 07:04:00;;;;;;;34.53;22.70;;;10.20;65.50;;;;;;5073900;28;20550;-75
2021/04/02 07:06:27;;;;;;;31.73;22.73;;;10.20;65.40;;;;;;5073870;28;20445;-75
2021/04/02 07:08:55;;;;;;;30.57;21.70;;;10.20;65.60;;;;;;5073850;28;20444;-75
2021/04/02 07:11:22;;;;;;;30.00;22.67;;;10.20;66.00;;;;;;5073461;28;21000;-75
2021/04/02 07:13:51;;;;;;;33.43;25.67;;;10.30;65.80;;;;;;5073438;28;20449;-75
2021/04/02 07:16:18;;;;;;;41.90;25.00;;;10.30;65.70;;;;;;5073380;28;20499;-75
2021/04/02 07:18:45;;;;;;;30.90;22.73;;;10.40;65.10;;;;;;5073733;28;20503;-76
2021/04/02 07:21:13;;;;;;;43.97;28.00;;;10.40;65.10;;;;;;5073705;28;20451;-76
2021/04/02 07:23:40;;;;;;;36.23;28.40;;;10.50;65.30;;;;;;5073757;28;20535;-75
2021/04/02 07:26:07;;;;;;;48.30;31.93;;;10.60;65.70;;;;;;5073409;28;20457;-76
2021/04/02 07:28:36;;;;;;;52.20;36.40;;;10.70;64.80;;;;;;5073544;28;20459;-76
2021/04/02 07:31:04;;;;;;;50.57;39.13;;;10.80;64.30;;;;;;5073248;28;20480;-75
2021/04/02 07:33:31;;;;;;;53.63;41.50;;;10.90;64.10;;;;;;5073523;28;20451;-76
2021/04/02 07:35:58;;;;;;;62.47;44.90;;;10.90;63.70;;;;;;5073494;28;20472;-76
2021/04/02 07:38:26;;;;;;;74.53;48.10;;;10.90;63.40;;;;;;5073405;28;20467;-76
2021/04/02 07:40:53;;;;;;;58.10;45.83;;;10.90;63.40;;;;;;5073165;28;20949;-76
2021/04/02 07:43:20;;;;;;;66.70;46.33;;;10.90;64.00;;;;;;5073470;28;20502;-75
2021/04/02 07:45:52;;;;;;;66.30;46.33;;;10.90;64.10;;;;;;5073410;28;20465;-75
2021/04/02 07:48:23;;;;;;;62.47;43.10;;;11.00;64.20;;;;;;5073423;28;20467;-76
2021/04/02 07:50:51;;;;;;;63.20;47.03;;;11.00;63.90;;;;;;5073301;28;20840;-75
2021/04/02 07:53:20;;;;;;;64.57;44.07;;;11.10;63.70;;;;;;5073392;28;20432;-75
2021/04/02 07:55:53;;;;;;;60.83;42.17;;;11.30;64.10;;;;;;5072949;28;20982;-75
2021/04/02 07:58:28;;;;;;;55.47;39.07;;;11.50;63.70;;;;;;5075927;28;20432;-75
2021/04/02 08:00:56;;;;;;;49.47;37.83;;;11.70;62.30;;;;;;5077409;28;20497;-75
2021/04/02 08:03:24;;;;;;;49.43;34.30;;;11.90;61.30;;;;;;5077338;28;20431;-75
2021/04/02 08:06:02;;;;;;;54.43;40.50;;;11.90;59.70;;;;;;5077638;28;20463;-80
2021/04/02 08:08:40;;;;;;;54.43;40.47;;;11.80;60.20;;;;;;5077590;28;20462;-76
2021/04/02 08:11:08;;;;;;;51.13;39.00;;;11.80;59.70;;;;;;5077328;28;20464;-74
2021/04/02 08:13:58;;;;;;;51.77;41.20;;;11.80;60.10;;;;;;5077115;28;20486;-75
2021/04/02 08:16:45;;;;;;;58.50;41.60;;;11.80;59.90;;;;;;5077151;28;20433;-74
2021/04/02 08:19:14;;;;;;;57.90;40.93;;;11.80;59.70;;;;;;5077095;28;20443;-72
2021/04/02 08:21:43;;;;;;;52.40;40.80;;;11.80;60.20;;;;;;5077066;28;20481;-73
2021/04/02 08:24:11;;;;;;;55.33;41.93;;;11.70;60.20;;;;;;5076943;28;20447;-74
2021/04/02 08:26:39;;;;;;;52.10;41.20;;;11.60;61.00;;;;;;5076977;28;20811;-74
2021/04/02 08:29:07;;;;;;;51.50;41.10;;;11.70;60.70;;;;;;5076902;28;20449;-74
2021/04/02 08:31:34;;;;;;;53.73;42.67;;;11.60;60.40;;;;;;5076814;28;20480;-74
2021/04/02 08:34:01;;;;;;;62.50;45.47;;;11.60;60.50;;;;;;5076680;28;20453;-74
2021/04/02 08:36:29;;;;;;;58.17;45.97;;;11.50;60.40;;;;;;5076789;28;20433;-74
2021/04/02 08:38:56;;;;;;;54.20;41.37;;;11.40;60.40;;;;;;5076741;28;20445;-74
2021/04/02 08:41:24;;;;;;;52.60;39.90;;;11.40;60.40;;;;;;5076656;28;20437;-74
2021/04/02 08:43:51;;;;;;;51.23;35.43;;;11.40;60.40;;;;;;5076282;28;20965;-74
2021/04/02 08:46:18;;;;;;;52.80;39.47;;;11.50;60.00;;;;;;5076533;28;20464;-74
2021/04/02 08:48:47;;;;;;;52.60;42.17;;;11.60;59.90;;;;;;5076533;28;20445;-74
2021/04/02 08:51:21;;;;;;;56.30;42.27;;;11.70;59.90;;;;;;5076354;28;20475;-74
2021/04/02 08:53:47;;;;;;;51.80;41.23;;;11.80;59.40;;;;;;5076448;28;20433;-74
2021/04/02 08:56:19;;;;;;;49.20;39.07;;;11.80;59.20;;;;;;5076338;28;20460;-74
2021/04/02 08:58:45;;;;;;;50.30;38.40;;;11.90;58.80;;;;;;5076352;28;20429;-74
2021/04/02 09:01:13;;;;;;;54.87;40.40;;;12.00;58.50;;;;;;5076259;28;20429;-74
2021/04/02 09:03:39;;;;;;;48.73;37.80;;;12.00;58.80;;;;;;5076256;28;20448;-74
2021/04/02 09:06:06;;;;;;;48.43;35.73;;;12.20;58.50;;;;;;5075838;28;21039;-75
2021/04/02 09:08:35;;;;;;;46.90;37.97;;;12.20;58.20;;;;;;5075552;28;20453;-74
2021/04/02 09:11:01;;;;;;;44.20;37.80;;;12.30;58.50;;;;;;5076042;28;20518;-74
2021/04/02 09:13:28;;;;;;;47.13;39.10;;;12.30;58.10;;;;;;5076084;28;20448;-74
2021/04/02 09:15:55;;;;;;;47.77;39.10;;;12.30;57.80;;;;;;5076027;28;20468;-74
2021/04/02 09:18:27;;;;;;;48.50;38.10;;;12.30;57.40;;;;;;5075994;28;20482;-74
2021/04/02 09:20:53;;;;;;;45.90;36.90;;;12.40;57.60;;;;;;5076034;28;20429;-74
2021/04/02 09:23:20;;;;;;;46.00;36.57;;;12.40;57.70;;;;;;5075895;28;20468;-74
2021/04/02 09:25:49;;;;;;;44.17;37.80;;;12.30;57.00;;;;;;5075774;28;20464;-74
2021/04/02 09:28:20;;;;;;;53.10;41.93;;;12.30;57.40;;;;;;5075625;28;20938;-74
2021/04/02 09:30:46;;;;;;;49.07;41.40;;;12.30;57.60;;;;;;5075983;28;20468;-73
2021/04/02 09:33:17;;;;;;;49.80;40.27;;;12.20;57.50;;;;;;5075608;28;20502;-72
2021/04/02 09:35:44;;;;;;;57.57;45.40;;;12.30;57.70;;;;;;5075338;28;20994;-73
2021/04/02 09:38:11;;;;;;;55.50;45.00;;;12.30;57.90;;;;;;5075700;28;20440;-74
2021/04/02 09:40:37;;;;;;;59.17;48.60;;;12.40;57.10;;;;;;5075666;28;20475;-73
2021/04/02 09:43:04;;;;;;;63.03;51.50;;;12.40;57.00;;;;;;5075749;28;20498;-73
2021/04/02 09:45:31;;;;;;;59.10;50.57;;;12.30;57.00;;;;;;5075465;28;20468;-73
2021/04/02 09:47:58;;;;;;;61.43;50.03;;;12.20;57.80;;;;;;5075461;28;20513;-73
2021/04/02 09:50:25;;;;;;;59.23;49.60;;;12.20;57.50;;;;;;5075412;28;20483;-73
2021/04/02 09:52:52;;;;;;;62.93;48.77;;;12.10;58.00;;;;;;5075500;28;20497;-72
2021/04/02 09:55:18;;;;;;;66.33;49.50;;;12.10;57.60;;;;;;5075206;28;20469;-73
2021/04/02 09:57:44;;;;;;;62.03;50.70;;;12.10;58.00;;;;;;5075276;28;20448;-73
2021/04/02 10:00:13;;;;;;;58.03;47.00;;;12.10;57.80;;;;;;5074856;28;20436;-74
2021/04/02 10:02:40;;;;;;;57.30;45.60;;;12.10;57.80;;;;;;5075141;28;20451;-74
2021/04/02 10:05:08;;;;;;;58.30;43.53;;;12.20;58.00;;;;;;5074726;28;20836;-74
2021/04/02 10:07:35;;;;;;;53.30;41.97;;;12.30;57.70;;;;;;5074787;28;20460;-74
2021/04/02 10:10:01;;;;;;;53.87;43.20;;;12.30;57.90;;;;;;5074895;28;20492;-74
2021/04/02 10:12:27;;;;;;;51.93;40.37;;;12.30;57.90;;;;;;5074998;28;20494;-75
2021/04/02 10:14:54;;;;;;;50.37;37.50;;;12.30;58.00;;;;;;5074856;28;20469;-73
2021/04/02 10:17:25;;;;;;;44.87;37.20;;;12.40;58.20;;;;;;5074518;28;20899;-73
2021/04/02 10:19:51;;;;;;;44.27;36.07;;;12.40;57.80;;;;;;5073833;28;20922;-73
2021/04/02 10:22:18;;;;;;;52.67;35.60;;;12.30;57.50;;;;;;5074720;28;20449;-73
2021/04/02 10:24:44;;;;;;;45.73;33.50;;;12.30;57.80;;;;;;5074618;28;20510;-73
2021/04/02 10:27:11;;;;;;;42.57;31.60;;;12.30;57.80;;;;;;5074314;28;20445;-75
2021/04/02 10:36:22;;;;;;;41.20;28.13;;;12.30;57.70;;;;;;5074234;28;20413;-73
2021/04/02 10:38:49;;;;;;;33.83;25.80;;;12.20;57.50;;;;;;5074435;28;20480;-73
2021/04/02 10:41:15;;;;;;;41.90;27.20;;;12.10;58.10;;;;;;5074441;28;20441;-73
2021/04/02 10:43:42;;;;;;;37.23;27.30;;;12.10;58.20;;;;;;5074040;28;20433;-73
2021/04/02 10:46:08;;;;;;;37.07;26.97;;;12.00;58.30;;;;;;5074254;28;20464;-73
2021/04/02 10:48:35;;;;;;;41.13;28.37;;;11.90;57.90;;;;;;5073942;28;20456;-75
2021/04/02 10:51:02;;;;;;;39.90;27.80;;;11.70;58.40;;;;;;5073873;28;20804;-75
2021/04/02 10:53:30;;;;;;;35.60;27.97;;;11.60;58.60;;;;;;5074113;28;20492;-75
2021/04/02 10:56:00;;;;;;;33.93;27.70;;;11.60;59.00;;;;;;5073735;28;20465;-75
2021/04/02 10:58:26;;;;;;;36.50;26.77;;;11.60;58.60;;;;;;5073703;28;20440;-75
2021/04/02 11:00:53;;;;;;;37.37;26.37;;;11.60;58.80;;;;;;5073692;28;20904;-75
2021/04/02 11:03:19;;;;;;;32.43;24.47;;;11.60;59.00;;;;;;5074006;28;20433;-77
2021/04/02 11:05:46;;;;;;;29.23;18.57;;;11.70;59.00;;;;;;5073894;28;20522;-76
2021/04/02 11:08:12;;;;;;;20.07;15.97;;;11.50;58.60;;;;;;5073588;28;20518;-75
2021/04/02 11:10:39;;;;;;;18.50;14.97;;;11.40;59.00;;;;;;5073851;28;20480;-75
2021/04/02 11:13:06;;;;;;;18.67;15.90;;;11.40;59.70;;;;;;5073542;28;20903;-75
2021/04/02 11:15:32;;;;;;;26.27;18.47;;;11.40;59.70;;;;;;5073693;28;20479;-75
2021/04/02 11:17:58;;;;;;;25.80;17.93;;;11.40;59.30;;;;;;5073715;28;20465;-75
2021/04/02 11:20:28;;;;;;;18.53;14.33;;;11.50;60.20;;;;;;5073872;28;20834;-75
2021/04/02 11:22:54;;;;;;;18.63;12.20;;;11.60;60.70;;;;;;5073720;28;20479;-75
2021/04/02 11:25:21;;;;;;;19.30;12.03;;;11.60;59.30;;;;;;5073306;28;20966;-75
2021/04/02 11:27:48;;;;;;;15.90;9.70;;;11.60;58.70;;;;;;5073616;28;20448;-76
2021/04/02 11:30:17;;;;;;;15.13;10.73;;;11.60;58.50;;;;;;5073510;28;20480;-72
2021/04/02 11:32:44;;;;;;;15.97;11.57;;;11.40;59.00;;;;;;5072027;28;20895;-74
2021/04/02 11:35:12;;;;;;;15.13;10.00;;;11.30;59.20;;;;;;5073506;28;20464;-73
2021/04/02 11:37:38;;;;;;;26.17;9.87;;;11.30;59.10;;;;;;5073737;28;20441;-73
2021/04/02 11:40:06;;;;;;;10.53;8.63;;;11.30;59.40;;;;;;5073514;28;20578;-77
2021/04/02 11:42:34;;;;;;;9.03;7.60;;;11.50;58.80;;;;;;5073506;28;20425;-75
2021/04/02 11:45:09;;;;;;;10.23;6.50;;;11.50;58.50;;;;;;5072985;28;20465;-74
2021/04/02 11:47:39;;;;;;;8.60;5.60;;;11.70;58.30;;;;;;5072446;28;20448;-72
2021/04/02 11:50:14;;;;;;;6.30;4.97;;;11.60;57.50;;;;;;5073010;28;20472;-74
2021/04/02 11:52:40;;;;;;;8.97;4.67;;;11.50;57.30;;;;;;5073096;28;20898;-73
2021/04/02 11:55:13;;;;;;;7.57;4.40;;;11.30;57.60;;;;;;5073298;28;20464;-73
2021/04/02 11:57:44;;;;;;;6.20;4.83;;;11.20;58.40;;;;;;5072565;28;20445;-74
2021/04/02 12:00:18;;;;;;;10.77;4.73;;;11.20;58.70;;;;;;5072905;28;20502;-73
2021/04/02 12:02:49;;;;;;;6.47;4.50;;;11.20;59.20;;;;;;5072979;28;20429;-73
2021/04/02 12:05:24;;;;;;;7.70;4.73;;;11.20;59.50;;;;;;5073005;28;20457;-74
2021/04/02 12:11:06;;;;;;;8.80;3.70;;;10.80;58.40;;;;;;5067850;28;20858;-73
2021/04/02 12:13:50;;;;;;;4.27;3.87;;;10.60;60.00;;;;;;5072937;28;20503;-72
2021/04/02 12:23:19;;;;;;;8.23;4.57;;;10.90;60.00;;;;;;5070959;28;20445;-71
2021/04/02 12:28:55;;;;;;;10.30;4.70;;;11.20;59.00;;;;;;5063892;28;20475;-72
2021/04/02 12:31:28;;;;;;;6.60;4.10;;;11.40;58.10;;;;;;5072882;28;20904;-72
2021/04/02 12:34:24;;;;;;;5.30;4.00;;;11.50;57.70;;;;;;5073128;28;20779;-72
2021/04/02 12:37:27;;;;;;;11.97;4.43;;;11.70;58.10;;;;;;5072592;28;20449;-72
2021/04/02 12:39:53;;;;;;;8.07;3.93;;;11.80;57.00;;;;;;5072785;28;20785;-72
2021/04/02 12:43:00;;;;;;;8.93;4.30;;;12.00;56.90;;;;;;5072997;28;20425;-74
2021/04/02 12:45:40;;;;;;;10.23;4.80;;;12.10;55.90;;;;;;5076520;28;20475;-72
2021/04/02 12:48:20;;;;;;;5.40;4.00;;;12.20;55.40;;;;;;5076202;28;20856;-72
2021/04/02 12:50:57;;;;;;;;;;;;;;;;;;;;;
2021/04/02 12:53:42;;;;;;;5.80;3.83;;;12.60;54.60;;;;;;5071765;28;20851;-72
2021/04/02 12:56:55;;;;;;;7.57;4.13;;;12.70;54.90;;;;;;5076133;28;20472;-73
2021/04/02 12:59:34;;;;;;;11.03;3.57;;;12.90;53.80;;;;;;5076398;28;20736;-73
2021/04/02 13:02:13;;;;;;;5.13;3.30;;;13.00;53.10;;;;;;5076063;28;20486;-75
2021/04/02 13:04:59;;;;;;;6.47;3.83;;;12.80;52.70;;;;;;5075358;28;20522;-75
2021/04/02 13:07:38;;;;;;;3.90;2.63;;;12.80;53.90;;;;;;5072939;28;20461;-75